sensor_id;sensor_type;location;lat;lon;timestamp;P1;durP1;ratioP1;P2;durP2;ratioP2
10827;SDS011;5467;59.334;13.512;2023-02-15T00:01:54;0.77;;;0.77;;
10827;SDS011;5467;59.334;13.512;2023-02-15T00:04:23;0.60;;;0.60;;
10827;SDS011;5467;59.334;13.512;2023-02-15T00:07:11;0.70;;;0.70;;
10827;SDS011;5467;59.334;13.512;2023-02-15T00:09:39;0.70;;;0.70;;
10827;SDS011;5467;59.334;13.512;2023-02-15T00:12:06;0.60;;;0.60;;
10827;SDS011;5467;59.334;13.512;2023-02-15T00:14:34;0.70;;;0.70;;
10827;SDS011;5467;59.334;13.512;2023-02-15T00:17:03;0.63;;;0.63;;
10827;SDS011;5467;59.334;13.512;2023-02-15T00:19:30;0.60;;;0.60;;
10827;SDS011;5467;59.334;13.512;2023-02-15T00:21:57;0.70;;;0.70;;
10827;SDS011;5467;59.334;13.512;2023-02-15T00:24:25;0.80;;;0.80;;
10827;SDS011;5467;59.334;13.512;2023-02-15T00:26:52;0.70;;;0.70;;
10827;SDS011;5467;59.334;13.512;2023-02-15T00:29:20;0.70;;;0.70;;
10827;SDS011;5467;59.334;13.512;2023-02-15T00:31:47;0.80;;;0.80;;
10827;SDS011;5467;59.334;13.512;2023-02-15T00:34:16;0.60;;;0.60;;
10827;SDS011;5467;59.334;13.512;2023-02-15T00:36:45;0.70;;;0.70;;
10827;SDS011;5467;59.334;13.512;2023-02-15T00:39:12;0.70;;;0.70;;
10827;SDS011;5467;59.334;13.512;2023-02-15T00:41:40;0.70;;;0.70;;
10827;SDS011;5467;59.334;13.512;2023-02-15T00:44:07;0.70;;;0.70;;
10827;SDS011;5467;59.334;13.512;2023-02-15T00:46:34;0.70;;;0.70;;
10827;SDS011;5467;59.334;13.512;2023-02-15T00:49:02;0.80;;;0.80;;
10827;SDS011;5467;59.334;13.512;2023-02-15T00:51:31;0.70;;;0.70;;
10827;SDS011;5467;59.334;13.512;2023-02-15T00:53:58;0.70;;;0.70;;
10827;SDS011;5467;59.334;13.512;2023-02-15T00:56:25;0.80;;;0.80;;
10827;SDS011;5467;59.334;13.512;2023-02-15T00:58:53;0.70;;;0.70;;
10827;SDS011;5467;59.334;13.512;2023-02-15T01:01:20;0.80;;;0.80;;
10827;SDS011;5467;59.334;13.512;2023-02-15T01:03:48;0.80;;;0.80;;
10827;SDS011;5467;59.334;13.512;2023-02-15T01:06:15;0.70;;;0.70;;
10827;SDS011;5467;59.334;13.512;2023-02-15T01:08:45;0.70;;;0.70;;
10827;SDS011;5467;59.334;13.512;2023-02-15T01:11:13;0.70;;;0.70;;
10827;SDS011;5467;59.334;13.512;2023-02-15T01:13:46;0.70;;;0.70;;
10827;SDS011;5467;59.334;13.512;2023-02-15T01:16:14;0.70;;;0.70;;
10827;SDS011;5467;59.334;13.512;2023-02-15T01:18:42;0.70;;;0.70;;
10827;SDS011;5467;59.334;13.512;2023-02-15T01:21:10;0.67;;;0.67;;
10827;SDS011;5467;59.334;13.512;2023-02-15T01:23:38;0.70;;;0.70;;
10827;SDS011;5467;59.334;13.512;2023-02-15T01:26:07;0.70;;;0.70;;
10827;SDS011;5467;59.334;13.512;2023-02-15T01:28:34;0.70;;;0.70;;
10827;SDS011;5467;59.334;13.512;2023-02-15T01:31:05;0.90;;;0.90;;
10827;SDS011;5467;59.334;13.512;2023-02-15T01:33:33;0.80;;;0.80;;
10827;SDS011;5467;59.334;13.512;2023-02-15T01:36:01;0.77;;;0.77;;
10827;SDS011;5467;59.334;13.512;2023-02-15T01:38:29;0.87;;;0.87;;
10827;SDS011;5467;59.334;13.512;2023-02-15T01:40:56;0.70;;;0.70;;
10827;SDS011;5467;59.334;13.512;2023-02-15T01:43:45;0.70;;;0.70;;
10827;SDS011;5467;59.334;13.512;2023-02-15T01:46:14;0.70;;;0.70;;
10827;SDS011;5467;59.334;13.512;2023-02-15T01:48:44;0.70;;;0.70;;
10827;SDS011;5467;59.334;13.512;2023-02-15T01:51:14;0.70;;;0.70;;
10827;SDS011;5467;59.334;13.512;2023-02-15T01:53:46;0.83;;;0.83;;
10827;SDS011;5467;59.334;13.512;2023-02-15T01:56:17;0.70;;;0.70;;
10827;SDS011;5467;59.334;13.512;2023-02-15T01:58:47;0.70;;;0.70;;
10827;SDS011;5467;59.334;13.512;2023-02-15T02:01:17;0.80;;;0.80;;
10827;SDS011;5467;59.334;13.512;2023-02-15T02:03:47;0.77;;;0.77;;
10827;SDS011;5467;59.334;13.512;2023-02-15T02:06:23;0.70;;;0.70;;
10827;SDS011;5467;59.334;13.512;2023-02-15T02:08:52;0.70;;;0.70;;
10827;SDS011;5467;59.334;13.512;2023-02-15T02:11:20;0.80;;;0.80;;
10827;SDS011;5467;59.334;13.512;2023-02-15T02:13:49;0.80;;;0.80;;
10827;SDS011;5467;59.334;13.512;2023-02-15T02:16:19;0.80;;;0.80;;
10827;SDS011;5467;59.334;13.512;2023-02-15T02:18:54;0.80;;;0.80;;
10827;SDS011;5467;59.334;13.512;2023-02-15T02:21:41;0.80;;;0.80;;
10827;SDS011;5467;59.334;13.512;2023-02-15T02:27:37;0.73;;;0.73;;
10827;SDS011;5467;59.334;13.512;2023-02-15T02:30:26;0.80;;;0.80;;
10827;SDS011;5467;59.334;13.512;2023-02-15T02:33:31;0.80;;;0.80;;
10827;SDS011;5467;59.334;13.512;2023-02-15T02:36:15;0.70;;;0.70;;
10827;SDS011;5467;59.334;13.512;2023-02-15T02:38:52;0.90;;;0.90;;
10827;SDS011;5467;59.334;13.512;2023-02-15T02:41:30;0.80;;;0.80;;
10827;SDS011;5467;59.334;13.512;2023-02-15T02:44:05;0.70;;;0.70;;
10827;SDS011;5467;59.334;13.512;2023-02-15T02:46:40;0.80;;;0.80;;
10827;SDS011;5467;59.334;13.512;2023-02-15T02:49:15;0.70;;;0.70;;
10827;SDS011;5467;59.334;13.512;2023-02-15T02:51:42;0.70;;;0.70;;
10827;SDS011;5467;59.334;13.512;2023-02-15T02:54:09;0.70;;;0.70;;
10827;SDS011;5467;59.334;13.512;2023-02-15T02:56:37;0.80;;;0.80;;
10827;SDS011;5467;59.334;13.512;2023-02-15T02:59:08;0.80;;;0.80;;
10827;SDS011;5467;59.334;13.512;2023-02-15T03:01:39;0.70;;;0.70;;
10827;SDS011;5467;59.334;13.512;2023-02-15T03:04:11;0.90;;;0.90;;
10827;SDS011;5467;59.334;13.512;2023-02-15T03:06:45;0.80;;;0.80;;
10827;SDS011;5467;59.334;13.512;2023-02-15T03:09:17;0.70;;;0.70;;
10827;SDS011;5467;59.334;13.512;2023-02-15T03:11:49;0.87;;;0.87;;
10827;SDS011;5467;59.334;13.512;2023-02-15T03:14:17;0.80;;;0.80;;
10827;SDS011;5467;59.334;13.512;2023-02-15T03:16:46;0.80;;;0.80;;
10827;SDS011;5467;59.334;13.512;2023-02-15T03:19:17;0.70;;;0.70;;
10827;SDS011;5467;59.334;13.512;2023-02-15T03:21:49;0.70;;;0.70;;
10827;SDS011;5467;59.334;13.512;2023-02-15T03:24:29;0.90;;;0.90;;
10827;SDS011;5467;59.334;13.512;2023-02-15T03:27:02;0.73;;;0.73;;
10827;SDS011;5467;59.334;13.512;2023-02-15T03:29:30;0.70;;;0.70;;
10827;SDS011;5467;59.334;13.512;2023-02-15T03:32:00;0.80;;;0.80;;
10827;SDS011;5467;59.334;13.512;2023-02-15T03:34:31;0.90;;;0.90;;
10827;SDS011;5467;59.334;13.512;2023-02-15T03:36:59;0.90;;;0.90;;
10827;SDS011;5467;59.334;13.512;2023-02-15T03:39:33;0.70;;;0.70;;
10827;SDS011;5467;59.334;13.512;2023-02-15T03:42:06;0.87;;;0.87;;
10827;SDS011;5467;59.334;13.512;2023-02-15T03:44:41;0.70;;;0.70;;
10827;SDS011;5467;59.334;13.512;2023-02-15T03:47:17;0.80;;;0.80;;
10827;SDS011;5467;59.334;13.512;2023-02-15T03:49:49;0.80;;;0.80;;
10827;SDS011;5467;59.334;13.512;2023-02-15T03:52:19;0.70;;;0.70;;
10827;SDS011;5467;59.334;13.512;2023-02-15T03:54:47;0.70;;;0.70;;
10827;SDS011;5467;59.334;13.512;2023-02-15T03:57:19;0.70;;;0.70;;
10827;SDS011;5467;59.334;13.512;2023-02-15T04:00:09;0.87;;;0.87;;
10827;SDS011;5467;59.334;13.512;2023-02-15T04:03:07;0.70;;;0.70;;
10827;SDS011;5467;59.334;13.512;2023-02-15T04:05:40;0.70;;;0.70;;
10827;SDS011;5467;59.334;13.512;2023-02-15T04:08:08;0.70;;;0.70;;
10827;SDS011;5467;59.334;13.512;2023-02-15T04:10:37;0.87;;;0.87;;
10827;SDS011;5467;59.334;13.512;2023-02-15T04:13:18;0.70;;;0.70;;
10827;SDS011;5467;59.334;13.512;2023-02-15T04:15:46;0.73;;;0.73;;
10827;SDS011;5467;59.334;13.512;2023-02-15T04:18:30;0.90;;;0.90;;
10827;SDS011;5467;59.334;13.512;2023-02-15T04:21:16;0.80;;;0.80;;
10827;SDS011;5467;59.334;13.512;2023-02-15T04:24:01;0.70;;;0.70;;
10827;SDS011;5467;59.334;13.512;2023-02-15T04:26:46;0.70;;;0.70;;
10827;SDS011;5467;59.334;13.512;2023-02-15T04:29:14;0.77;;;0.77;;
10827;SDS011;5467;59.334;13.512;2023-02-15T04:31:41;0.70;;;0.70;;
10827;SDS011;5467;59.334;13.512;2023-02-15T04:34:09;0.60;;;0.60;;
10827;SDS011;5467;59.334;13.512;2023-02-15T04:36:38;0.70;;;0.70;;
10827;SDS011;5467;59.334;13.512;2023-02-15T04:39:06;0.80;;;0.80;;
10827;SDS011;5467;59.334;13.512;2023-02-15T04:41:33;0.80;;;0.80;;
10827;SDS011;5467;59.334;13.512;2023-02-15T04:44:01;0.80;;;0.80;;
10827;SDS011;5467;59.334;13.512;2023-02-15T04:46:29;0.70;;;0.70;;
10827;SDS011;5467;59.334;13.512;2023-02-15T04:48:56;0.70;;;0.70;;
10827;SDS011;5467;59.334;13.512;2023-02-15T04:51:23;0.80;;;0.80;;
10827;SDS011;5467;59.334;13.512;2023-02-15T04:53:52;0.70;;;0.70;;
10827;SDS011;5467;59.334;13.512;2023-02-15T04:56:19;0.80;;;0.80;;
10827;SDS011;5467;59.334;13.512;2023-02-15T04:58:46;0.83;;;0.83;;
10827;SDS011;5467;59.334;13.512;2023-02-15T05:01:14;0.70;;;0.70;;
10827;SDS011;5467;59.334;13.512;2023-02-15T05:03:41;0.73;;;0.73;;
10827;SDS011;5467;59.334;13.512;2023-02-15T05:06:08;0.70;;;0.70;;
10827;SDS011;5467;59.334;13.512;2023-02-15T05:08:35;0.70;;;0.70;;
10827;SDS011;5467;59.334;13.512;2023-02-15T05:11:04;0.80;;;0.80;;
10827;SDS011;5467;59.334;13.512;2023-02-15T05:13:31;0.80;;;0.80;;
10827;SDS011;5467;59.334;13.512;2023-02-15T05:15:58;0.80;;;0.80;;
10827;SDS011;5467;59.334;13.512;2023-02-15T05:18:25;0.80;;;0.80;;
10827;SDS011;5467;59.334;13.512;2023-02-15T05:20:52;0.80;;;0.80;;
10827;SDS011;5467;59.334;13.512;2023-02-15T05:23:19;0.90;;;0.90;;
10827;SDS011;5467;59.334;13.512;2023-02-15T05:25:47;0.80;;;0.80;;
10827;SDS011;5467;59.334;13.512;2023-02-15T05:28:33;0.80;;;0.80;;
10827;SDS011;5467;59.334;13.512;2023-02-15T05:31:02;0.80;;;0.80;;
10827;SDS011;5467;59.334;13.512;2023-02-15T05:33:31;0.90;;;0.90;;
10827;SDS011;5467;59.334;13.512;2023-02-15T05:35:58;0.80;;;0.80;;
10827;SDS011;5467;59.334;13.512;2023-02-15T05:38:26;0.80;;;0.80;;
10827;SDS011;5467;59.334;13.512;2023-02-15T05:40:53;0.70;;;0.70;;
10827;SDS011;5467;59.334;13.512;2023-02-15T05:43:20;0.80;;;0.80;;
10827;SDS011;5467;59.334;13.512;2023-02-15T05:45:49;0.70;;;0.70;;
10827;SDS011;5467;59.334;13.512;2023-02-15T05:48:17;0.80;;;0.80;;
10827;SDS011;5467;59.334;13.512;2023-02-15T05:50:45;0.80;;;0.80;;
10827;SDS011;5467;59.334;13.512;2023-02-15T05:53:13;0.90;;;0.90;;
10827;SDS011;5467;59.334;13.512;2023-02-15T05:55:40;0.90;;;0.90;;
10827;SDS011;5467;59.334;13.512;2023-02-15T05:58:07;0.80;;;0.80;;
10827;SDS011;5467;59.334;13.512;2023-02-15T06:00:34;0.80;;;0.80;;
10827;SDS011;5467;59.334;13.512;2023-02-15T06:03:03;0.87;;;0.87;;
10827;SDS011;5467;59.334;13.512;2023-02-15T06:05:30;0.70;;;0.70;;
10827;SDS011;5467;59.334;13.512;2023-02-15T06:07:57;0.80;;;0.80;;
10827;SDS011;5467;59.334;13.512;2023-02-15T06:10:24;0.80;;;0.80;;
10827;SDS011;5467;59.334;13.512;2023-02-15T06:12:51;0.70;;;0.70;;
10827;SDS011;5467;59.334;13.512;2023-02-15T06:15:18;0.77;;;0.77;;
10827;SDS011;5467;59.334;13.512;2023-02-15T06:17:45;0.83;;;0.83;;
10827;SDS011;5467;59.334;13.512;2023-02-15T06:20:14;0.80;;;0.80;;
10827;SDS011;5467;59.334;13.512;2023-02-15T06:22:41;0.80;;;0.80;;
10827;SDS011;5467;59.334;13.512;2023-02-15T06:25:08;0.80;;;0.80;;
10827;SDS011;5467;59.334;13.512;2023-02-15T06:27:36;0.83;;;0.83;;
10827;SDS011;5467;59.334;13.512;2023-02-15T06:30:04;0.80;;;0.80;;
10827;SDS011;5467;59.334;13.512;2023-02-15T06:32:31;0.90;;;0.90;;
10827;SDS011;5467;59.334;13.512;2023-02-15T06:34:59;0.80;;;0.80;;
10827;SDS011;5467;59.334;13.512;2023-02-15T06:37:27;0.90;;;0.90;;
10827;SDS011;5467;59.334;13.512;2023-02-15T06:39:54;0.80;;;0.80;;
10827;SDS011;5467;59.334;13.512;2023-02-15T06:42:22;1.00;;;1.00;;
10827;SDS011;5467;59.334;13.512;2023-02-15T06:44:50;0.90;;;0.90;;
10827;SDS011;5467;59.334;13.512;2023-02-15T06:47:17;0.93;;;0.93;;
10827;SDS011;5467;59.334;13.512;2023-02-15T06:49:44;1.20;;;1.20;;
10827;SDS011;5467;59.334;13.512;2023-02-15T06:52:11;0.90;;;0.90;;
10827;SDS011;5467;59.334;13.512;2023-02-15T06:54:40;0.97;;;0.97;;
10827;SDS011;5467;59.334;13.512;2023-02-15T06:57:07;1.03;;;1.03;;
10827;SDS011;5467;59.334;13.512;2023-02-15T06:59:35;0.90;;;0.90;;
10827;SDS011;5467;59.334;13.512;2023-02-15T07:02:02;0.80;;;0.80;;
10827;SDS011;5467;59.334;13.512;2023-02-15T07:04:29;0.80;;;0.80;;
10827;SDS011;5467;59.334;13.512;2023-02-15T07:06:56;1.00;;;1.00;;
10827;SDS011;5467;59.334;13.512;2023-02-15T07:09:23;1.00;;;1.00;;
10827;SDS011;5467;59.334;13.512;2023-02-15T07:11:52;0.90;;;0.90;;
10827;SDS011;5467;59.334;13.512;2023-02-15T07:14:37;1.10;;;1.10;;
10827;SDS011;5467;59.334;13.512;2023-02-15T07:17:05;0.90;;;0.90;;
10827;SDS011;5467;59.334;13.512;2023-02-15T07:19:32;0.90;;;0.90;;
10827;SDS011;5467;59.334;13.512;2023-02-15T07:21:59;1.10;;;1.10;;
10827;SDS011;5467;59.334;13.512;2023-02-15T07:24:27;1.00;;;1.00;;
10827;SDS011;5467;59.334;13.512;2023-02-15T07:26:56;0.90;;;0.90;;
10827;SDS011;5467;59.334;13.512;2023-02-15T07:29:23;1.10;;;1.10;;
10827;SDS011;5467;59.334;13.512;2023-02-15T07:31:50;0.90;;;0.90;;
10827;SDS011;5467;59.334;13.512;2023-02-15T07:34:17;1.00;;;1.00;;
10827;SDS011;5467;59.334;13.512;2023-02-15T07:36:45;1.00;;;1.00;;
10827;SDS011;5467;59.334;13.512;2023-02-15T07:39:12;0.90;;;0.90;;
10827;SDS011;5467;59.334;13.512;2023-02-15T07:41:39;1.00;;;1.00;;
10827;SDS011;5467;59.334;13.512;2023-02-15T07:44:10;1.00;;;1.00;;
10827;SDS011;5467;59.334;13.512;2023-02-15T07:46:38;0.97;;;0.97;;
10827;SDS011;5467;59.334;13.512;2023-02-15T07:49:05;1.10;;;1.10;;
10827;SDS011;5467;59.334;13.512;2023-02-15T07:51:33;1.00;;;1.00;;
10827;SDS011;5467;59.334;13.512;2023-02-15T07:54:00;1.00;;;1.00;;
10827;SDS011;5467;59.334;13.512;2023-02-15T07:56:27;1.10;;;1.10;;
10827;SDS011;5467;59.334;13.512;2023-02-15T07:58:54;1.10;;;1.10;;
10827;SDS011;5467;59.334;13.512;2023-02-15T08:01:25;1.00;;;1.00;;
10827;SDS011;5467;59.334;13.512;2023-02-15T08:03:53;1.00;;;1.00;;
10827;SDS011;5467;59.334;13.512;2023-02-15T08:06:21;1.20;;;1.20;;
10827;SDS011;5467;59.334;13.512;2023-02-15T08:08:49;1.00;;;1.00;;
10827;SDS011;5467;59.334;13.512;2023-02-15T08:11:18;1.00;;;1.00;;
10827;SDS011;5467;59.334;13.512;2023-02-15T08:13:58;1.03;;;1.03;;
10827;SDS011;5467;59.334;13.512;2023-02-15T08:16:30;1.10;;;1.10;;
10827;SDS011;5467;59.334;13.512;2023-02-15T08:19:00;1.00;;;1.00;;
10827;SDS011;5467;59.334;13.512;2023-02-15T08:21:29;1.10;;;1.10;;
10827;SDS011;5467;59.334;13.512;2023-02-15T08:23:58;0.90;;;0.90;;
10827;SDS011;5467;59.334;13.512;2023-02-15T08:26:26;0.90;;;0.90;;
10827;SDS011;5467;59.334;13.512;2023-02-15T08:28:54;1.10;;;1.10;;
10827;SDS011;5467;59.334;13.512;2023-02-15T08:31:22;1.00;;;1.00;;
10827;SDS011;5467;59.334;13.512;2023-02-15T08:33:51;0.90;;;0.90;;
10827;SDS011;5467;59.334;13.512;2023-02-15T08:36:20;1.00;;;1.00;;
10827;SDS011;5467;59.334;13.512;2023-02-15T08:38:48;1.10;;;1.10;;
10827;SDS011;5467;59.334;13.512;2023-02-15T08:41:16;1.10;;;1.10;;
10827;SDS011;5467;59.334;13.512;2023-02-15T08:43:45;1.13;;;1.13;;
10827;SDS011;5467;59.334;13.512;2023-02-15T08:46:14;1.10;;;1.10;;
10827;SDS011;5467;59.334;13.512;2023-02-15T08:48:42;1.10;;;1.10;;
10827;SDS011;5467;59.334;13.512;2023-02-15T08:51:12;0.90;;;0.90;;
10827;SDS011;5467;59.334;13.512;2023-02-15T08:53:41;1.20;;;1.20;;
10827;SDS011;5467;59.334;13.512;2023-02-15T08:56:10;1.10;;;1.10;;
10827;SDS011;5467;59.334;13.512;2023-02-15T08:58:37;1.00;;;1.00;;
10827;SDS011;5467;59.334;13.512;2023-02-15T09:01:08;1.10;;;1.10;;
10827;SDS011;5467;59.334;13.512;2023-02-15T09:03:36;1.00;;;1.00;;
10827;SDS011;5467;59.334;13.512;2023-02-15T09:06:05;1.10;;;1.10;;
10827;SDS011;5467;59.334;13.512;2023-02-15T09:08:34;1.00;;;1.00;;
10827;SDS011;5467;59.334;13.512;2023-02-15T09:11:04;1.10;;;1.10;;
10827;SDS011;5467;59.334;13.512;2023-02-15T09:13:32;1.20;;;1.20;;
10827;SDS011;5467;59.334;13.512;2023-02-15T09:16:01;0.97;;;0.97;;
10827;SDS011;5467;59.334;13.512;2023-02-15T09:21:51;1.10;;;1.10;;
10827;SDS011;5467;59.334;13.512;2023-02-15T09:24:20;0.93;;;0.93;;
10827;SDS011;5467;59.334;13.512;2023-02-15T09:26:47;1.00;;;1.00;;
10827;SDS011;5467;59.334;13.512;2023-02-15T09:29:16;0.80;;;0.80;;
10827;SDS011;5467;59.334;13.512;2023-02-15T09:31:45;0.97;;;0.97;;
10827;SDS011;5467;59.334;13.512;2023-02-15T09:34:14;0.90;;;0.90;;
10827;SDS011;5467;59.334;13.512;2023-02-15T09:36:43;0.90;;;0.90;;
10827;SDS011;5467;59.334;13.512;2023-02-15T09:39:11;1.03;;;1.03;;
10827;SDS011;5467;59.334;13.512;2023-02-15T09:42:00;0.90;;;0.90;;
10827;SDS011;5467;59.334;13.512;2023-02-15T09:44:43;1.00;;;1.00;;
10827;SDS011;5467;59.334;13.512;2023-02-15T09:47:43;0.90;;;0.90;;
10827;SDS011;5467;59.334;13.512;2023-02-15T09:50:20;1.00;;;1.00;;
10827;SDS011;5467;59.334;13.512;2023-02-15T09:52:59;1.17;;;1.17;;
10827;SDS011;5467;59.334;13.512;2023-02-15T09:55:38;1.00;;;1.00;;
10827;SDS011;5467;59.334;13.512;2023-02-15T09:58:17;0.90;;;0.90;;
10827;SDS011;5467;59.334;13.512;2023-02-15T10:00:53;1.00;;;1.00;;
10827;SDS011;5467;59.334;13.512;2023-02-15T10:03:31;1.00;;;1.00;;
10827;SDS011;5467;59.334;13.512;2023-02-15T10:06:18;0.90;;;0.90;;
10827;SDS011;5467;59.334;13.512;2023-02-15T10:09:02;1.00;;;1.00;;
10827;SDS011;5467;59.334;13.512;2023-02-15T10:15:24;1.10;;;1.10;;
10827;SDS011;5467;59.334;13.512;2023-02-15T10:18:02;0.90;;;0.90;;
10827;SDS011;5467;59.334;13.512;2023-02-15T10:20:49;1.00;;;1.00;;
10827;SDS011;5467;59.334;13.512;2023-02-15T10:23:29;0.93;;;0.93;;
10827;SDS011;5467;59.334;13.512;2023-02-15T10:26:17;1.03;;;1.03;;
10827;SDS011;5467;59.334;13.512;2023-02-15T10:28:48;1.00;;;1.00;;
10827;SDS011;5467;59.334;13.512;2023-02-15T10:31:23;1.00;;;1.00;;
10827;SDS011;5467;59.334;13.512;2023-02-15T10:34:01;1.03;;;1.03;;
10827;SDS011;5467;59.334;13.512;2023-02-15T10:36:48;1.00;;;1.00;;
10827;SDS011;5467;59.334;13.512;2023-02-15T10:39:46;1.10;;;1.10;;
10827;SDS011;5467;59.334;13.512;2023-02-15T10:42:26;1.00;;;1.00;;
10827;SDS011;5467;59.334;13.512;2023-02-15T10:45:03;0.90;;;0.90;;
10827;SDS011;5467;59.334;13.512;2023-02-15T10:47:44;1.00;;;1.00;;
10827;SDS011;5467;59.334;13.512;2023-02-15T10:50:26;1.10;;;1.10;;
10827;SDS011;5467;59.334;13.512;2023-02-15T10:53:10;1.00;;;1.00;;
10827;SDS011;5467;59.334;13.512;2023-02-15T10:55:52;0.93;;;0.93;;
10827;SDS011;5467;59.334;13.512;2023-02-15T10:58:34;1.03;;;1.03;;
10827;SDS011;5467;59.334;13.512;2023-02-15T11:01:15;0.97;;;0.97;;
10827;SDS011;5467;59.334;13.512;2023-02-15T11:03:58;1.13;;;1.13;;
10827;SDS011;5467;59.334;13.512;2023-02-15T11:06:54;1.00;;;1.00;;
10827;SDS011;5467;59.334;13.512;2023-02-15T11:09:25;1.00;;;1.00;;
10827;SDS011;5467;59.334;13.512;2023-02-15T11:12:00;0.90;;;0.90;;
10827;SDS011;5467;59.334;13.512;2023-02-15T11:14:30;1.00;;;1.00;;
10827;SDS011;5467;59.334;13.512;2023-02-15T11:17:09;0.97;;;0.97;;
10827;SDS011;5467;59.334;13.512;2023-02-15T11:19:39;1.00;;;1.00;;
10827;SDS011;5467;59.334;13.512;2023-02-15T11:22:13;1.00;;;1.00;;
10827;SDS011;5467;59.334;13.512;2023-02-15T11:24:42;0.83;;;0.83;;
10827;SDS011;5467;59.334;13.512;2023-02-15T11:27:16;0.90;;;0.90;;
10827;SDS011;5467;59.334;13.512;2023-02-15T11:29:48;0.90;;;0.90;;
10827;SDS011;5467;59.334;13.512;2023-02-15T11:32:22;0.90;;;0.90;;
10827;SDS011;5467;59.334;13.512;2023-02-15T11:34:53;1.00;;;1.00;;
10827;SDS011;5467;59.334;13.512;2023-02-15T11:37:26;0.97;;;0.97;;
10827;SDS011;5467;59.334;13.512;2023-02-15T11:39:57;0.90;;;0.90;;
10827;SDS011;5467;59.334;13.512;2023-02-15T11:42:25;1.00;;;1.00;;
10827;SDS011;5467;59.334;13.512;2023-02-15T11:44:58;0.90;;;0.90;;
10827;SDS011;5467;59.334;13.512;2023-02-15T11:47:32;0.90;;;0.90;;
10827;SDS011;5467;59.334;13.512;2023-02-15T11:49:59;0.80;;;0.80;;
10827;SDS011;5467;59.334;13.512;2023-02-15T11:52:26;0.80;;;0.80;;
10827;SDS011;5467;59.334;13.512;2023-02-15T11:54:53;0.83;;;0.83;;
10827;SDS011;5467;59.334;13.512;2023-02-15T11:57:22;0.90;;;0.90;;
10827;SDS011;5467;59.334;13.512;2023-02-15T11:59:58;0.80;;;0.80;;
10827;SDS011;5467;59.334;13.512;2023-02-15T12:02:31;0.90;;;0.90;;
10827;SDS011;5467;59.334;13.512;2023-02-15T12:05:03;0.90;;;0.90;;
10827;SDS011;5467;59.334;13.512;2023-02-15T12:07:36;1.00;;;1.00;;
10827;SDS011;5467;59.334;13.512;2023-02-15T12:10:13;0.90;;;0.90;;
10827;SDS011;5467;59.334;13.512;2023-02-15T12:12:45;1.00;;;1.00;;
10827;SDS011;5467;59.334;13.512;2023-02-15T12:15:13;1.00;;;1.00;;
10827;SDS011;5467;59.334;13.512;2023-02-15T12:17:47;0.90;;;0.90;;
10827;SDS011;5467;59.334;13.512;2023-02-15T12:20:21;0.90;;;0.90;;
10827;SDS011;5467;59.334;13.512;2023-02-15T12:22:54;0.90;;;0.90;;
10827;SDS011;5467;59.334;13.512;2023-02-15T12:25:29;0.80;;;0.80;;
10827;SDS011;5467;59.334;13.512;2023-02-15T12:28:02;0.87;;;0.87;;
10827;SDS011;5467;59.334;13.512;2023-02-15T12:30:31;1.20;;;1.20;;
10827;SDS011;5467;59.334;13.512;2023-02-15T12:33:05;0.90;;;0.90;;
10827;SDS011;5467;59.334;13.512;2023-02-15T12:35:42;0.90;;;0.90;;
10827;SDS011;5467;59.334;13.512;2023-02-15T12:38:20;0.80;;;0.80;;
10827;SDS011;5467;59.334;13.512;2023-02-15T12:40:56;0.90;;;0.90;;
10827;SDS011;5467;59.334;13.512;2023-02-15T12:43:25;0.80;;;0.80;;
10827;SDS011;5467;59.334;13.512;2023-02-15T12:45:53;0.80;;;0.80;;
10827;SDS011;5467;59.334;13.512;2023-02-15T12:48:40;0.90;;;0.90;;
10827;SDS011;5467;59.334;13.512;2023-02-15T12:51:08;0.80;;;0.80;;
10827;SDS011;5467;59.334;13.512;2023-02-15T12:53:39;0.80;;;0.80;;
10827;SDS011;5467;59.334;13.512;2023-02-15T12:56:08;0.77;;;0.77;;
10827;SDS011;5467;59.334;13.512;2023-02-15T12:58:36;0.73;;;0.73;;
10827;SDS011;5467;59.334;13.512;2023-02-15T13:01:11;0.90;;;0.90;;
10827;SDS011;5467;59.334;13.512;2023-02-15T13:03:53;0.90;;;0.90;;
10827;SDS011;5467;59.334;13.512;2023-02-15T13:06:25;0.90;;;0.90;;
10827;SDS011;5467;59.334;13.512;2023-02-15T13:08:54;0.90;;;0.90;;
10827;SDS011;5467;59.334;13.512;2023-02-15T13:11:24;0.80;;;0.80;;
10827;SDS011;5467;59.334;13.512;2023-02-15T13:13:55;0.90;;;0.90;;
10827;SDS011;5467;59.334;13.512;2023-02-15T13:16:26;1.20;;;1.20;;
10827;SDS011;5467;59.334;13.512;2023-02-15T13:18:58;0.90;;;0.90;;
10827;SDS011;5467;59.334;13.512;2023-02-15T13:21:32;0.90;;;0.90;;
10827;SDS011;5467;59.334;13.512;2023-02-15T13:24:04;1.00;;;1.00;;
10827;SDS011;5467;59.334;13.512;2023-02-15T13:26:37;0.90;;;0.90;;
10827;SDS011;5467;59.334;13.512;2023-02-15T13:29:11;0.80;;;0.80;;
10827;SDS011;5467;59.334;13.512;2023-02-15T13:31:45;0.83;;;0.83;;
10827;SDS011;5467;59.334;13.512;2023-02-15T13:34:14;0.83;;;0.83;;
10827;SDS011;5467;59.334;13.512;2023-02-15T13:36:48;0.90;;;0.90;;
10827;SDS011;5467;59.334;13.512;2023-02-15T13:39:23;0.80;;;0.80;;
10827;SDS011;5467;59.334;13.512;2023-02-15T13:41:58;1.00;;;1.00;;
10827;SDS011;5467;59.334;13.512;2023-02-15T13:44:33;0.80;;;0.80;;
10827;SDS011;5467;59.334;13.512;2023-02-15T13:47:18;0.90;;;0.90;;
10827;SDS011;5467;59.334;13.512;2023-02-15T13:50:00;0.90;;;0.90;;
10827;SDS011;5467;59.334;13.512;2023-02-15T13:52:42;0.80;;;0.80;;
10827;SDS011;5467;59.334;13.512;2023-02-15T13:55:27;0.80;;;0.80;;
10827;SDS011;5467;59.334;13.512;2023-02-15T13:58:09;0.87;;;0.87;;
10827;SDS011;5467;59.334;13.512;2023-02-15T14:00:53;0.83;;;0.83;;
10827;SDS011;5467;59.334;13.512;2023-02-15T14:06:37;0.90;;;0.90;;
10827;SDS011;5467;59.334;13.512;2023-02-15T14:09:20;0.80;;;0.80;;
10827;SDS011;5467;59.334;13.512;2023-02-15T14:12:09;0.90;;;0.90;;
10827;SDS011;5467;59.334;13.512;2023-02-15T14:14:58;0.80;;;0.80;;
10827;SDS011;5467;59.334;13.512;2023-02-15T14:17:41;0.90;;;0.90;;
10827;SDS011;5467;59.334;13.512;2023-02-15T14:20:17;0.80;;;0.80;;
10827;SDS011;5467;59.334;13.512;2023-02-15T14:22:50;0.90;;;0.90;;
10827;SDS011;5467;59.334;13.512;2023-02-15T14:25:27;0.80;;;0.80;;
10827;SDS011;5467;59.334;13.512;2023-02-15T14:27:59;0.80;;;0.80;;
10827;SDS011;5467;59.334;13.512;2023-02-15T14:30:33;0.80;;;0.80;;
10827;SDS011;5467;59.334;13.512;2023-02-15T14:33:05;0.70;;;0.70;;
10827;SDS011;5467;59.334;13.512;2023-02-15T14:35:34;0.80;;;0.80;;
10827;SDS011;5467;59.334;13.512;2023-02-15T14:38:06;0.70;;;0.70;;
10827;SDS011;5467;59.334;13.512;2023-02-15T14:40:44;0.90;;;0.90;;
10827;SDS011;5467;59.334;13.512;2023-02-15T14:43:38;0.80;;;0.80;;
10827;SDS011;5467;59.334;13.512;2023-02-15T14:46:16;0.80;;;0.80;;
10827;SDS011;5467;59.334;13.512;2023-02-15T14:48:52;0.77;;;0.77;;
10827;SDS011;5467;59.334;13.512;2023-02-15T14:57:23;0.80;;;0.80;;
10827;SDS011;5467;59.334;13.512;2023-02-15T14:59:53;0.80;;;0.80;;
10827;SDS011;5467;59.334;13.512;2023-02-15T15:02:24;0.70;;;0.70;;
10827;SDS011;5467;59.334;13.512;2023-02-15T15:04:58;0.80;;;0.80;;
10827;SDS011;5467;59.334;13.512;2023-02-15T15:07:35;0.80;;;0.80;;
10827;SDS011;5467;59.334;13.512;2023-02-15T15:10:33;0.80;;;0.80;;
10827;SDS011;5467;59.334;13.512;2023-02-15T15:19:12;0.77;;;0.77;;
10827;SDS011;5467;59.334;13.512;2023-02-15T15:22:29;0.80;;;0.80;;
10827;SDS011;5467;59.334;13.512;2023-02-15T15:24:57;0.70;;;0.70;;
10827;SDS011;5467;59.334;13.512;2023-02-15T15:27:40;0.90;;;0.90;;
10827;SDS011;5467;59.334;13.512;2023-02-15T15:33:18;0.80;;;0.80;;
10827;SDS011;5467;59.334;13.512;2023-02-15T15:36:16;0.70;;;0.70;;
10827;SDS011;5467;59.334;13.512;2023-02-15T15:39:05;0.80;;;0.80;;
10827;SDS011;5467;59.334;13.512;2023-02-15T15:41:47;0.70;;;0.70;;
10827;SDS011;5467;59.334;13.512;2023-02-15T15:44:37;0.70;;;0.70;;
10827;SDS011;5467;59.334;13.512;2023-02-15T15:47:34;0.80;;;0.80;;
10827;SDS011;5467;59.334;13.512;2023-02-15T15:50:19;0.87;;;0.87;;